Time;durP1;ratioP1;P1;durP2;ratioP2;P2;SDS_P1;SDS_P2;PMS_P1;PMS_P2;Temp;Humidity;BMP_temperature;BMP_pressure;BME280_temperature;BME280_humidity;BME280_pressure;Samples;Min_cycle;Max_cycle;Signal;HPM_P1;HPM_P2
2022/03/03 00:03:23;;;;;;;75.78;30.02;;;;;;;-4.46;70.57;99796.00;8492413;27;20489;-72
2022/03/03 00:07:24;;;;;;;81.78;32.38;;;;;;;-4.52;71.04;99796.78;8472685;27;20088;-71
2022/03/03 00:11:25;;;;;;;82.53;32.00;;;;;;;-4.55;70.89;99791.91;8497532;27;20039;-71
2022/03/03 00:15:26;;;;;;;84.07;31.80;;;;;;;-4.58;70.67;99787.84;8478221;27;20411;-70
2022/03/03 00:19:27;;;;;;;92.07;34.67;;;;;;;-4.60;70.92;99778.50;8488107;27;20070;-70
2022/03/03 00:23:27;;;;;;;93.97;34.35;;;;;;;-4.64;71.56;99782.50;8478184;27;20055;-70
2022/03/03 00:27:28;;;;;;;95.60;33.95;;;;;;;-4.68;71.53;99782.09;8477010;27;20043;-71
2022/03/03 00:31:29;;;;;;;89.68;32.30;;;;;;;-4.70;71.12;99774.38;8437660;27;20462;-72
2022/03/03 00:35:30;;;;;;;93.20;34.70;;;;;;;-4.73;71.56;99785.31;8495225;27;20051;-70
2022/03/03 00:39:31;;;;;;;90.82;32.55;;;;;;;-4.76;71.40;99769.88;8465116;27;20138;-70
2022/03/03 00:43:32;;;;;;;89.97;33.50;;;;;;;-4.79;71.47;99770.28;8490076;27;20103;-71
2022/03/03 00:47:33;;;;;;;93.13;32.70;;;;;;;-4.86;71.72;99769.41;8496734;27;20035;-71
2022/03/03 00:51:34;;;;;;;93.85;33.67;;;;;;;-4.88;71.63;99770.63;8470376;27;20073;-72
2022/03/03 00:55:35;;;;;;;88.03;33.28;;;;;;;-4.88;71.77;99771.44;8486145;27;20486;-71
2022/03/03 00:59:36;;;;;;;91.88;33.83;;;;;;;-4.91;71.97;99771.81;8468717;27;20089;-70
2022/03/03 01:03:37;;;;;;;72.35;30.42;;;;;;;-4.93;71.93;99768.56;8466973;27;20043;-70
2022/03/03 01:07:38;;;;;;;85.53;31.83;;;;;;;-4.95;72.07;99770.56;8480025;27;20047;-70
2022/03/03 01:11:39;;;;;;;83.60;30.65;;;;;;;-4.97;72.32;99767.31;8496040;27;20043;-71
2022/03/03 01:15:40;;;;;;;79.00;31.83;;;;;;;-5.03;72.26;99760.19;8489388;27;20050;-70
2022/03/03 01:19:42;;;;;;;89.72;33.47;;;;;;;-5.07;72.65;99751.03;8463188;27;20134;-70
2022/03/03 01:23:43;;;;;;;90.07;32.05;;;;;;;-5.08;72.63;99744.16;8464384;27;20060;-70
2022/03/03 01:27:45;;;;;;;87.85;30.45;;;;;;;-5.10;72.60;99740.91;8477890;27;20145;-70
2022/03/03 01:31:46;;;;;;;81.90;31.70;;;;;;;-5.12;72.77;99735.00;8496466;27;20421;-70
2022/03/03 01:35:47;;;;;;;77.63;30.48;;;;;;;-5.16;72.91;99720.59;8479824;27;20067;-70
2022/03/03 01:39:48;;;;;;;83.10;31.88;;;;;;;-5.18;73.08;99725.25;8493140;27;20043;-71
2022/03/03 01:43:49;;;;;;;83.93;31.63;;;;;;;-5.16;72.82;99720.59;8482618;27;20248;-70
2022/03/03 01:47:50;;;;;;;88.15;33.85;;;;;;;-5.20;73.15;99724.63;8488964;27;20054;-70
2022/03/03 01:51:52;;;;;;;83.97;31.33;;;;;;;-5.20;73.08;99719.34;8486083;27;20164;-70
2022/03/03 01:55:54;;;;;;;82.55;30.52;;;;;;;-5.22;73.79;99716.09;8487075;27;20821;-70
2022/03/03 01:59:55;;;;;;;87.22;32.42;;;;;;;-5.23;72.98;99703.94;8476315;27;20050;-70
2022/03/03 02:03:57;;;;;;;83.07;31.67;;;;;;;-5.22;73.01;99708.19;8443421;27;20050;-70
2022/03/03 02:07:58;;;;;;;97.85;33.30;;;;;;;-5.21;72.81;99712.47;8490320;27;20043;-70
2022/03/03 02:11:59;;;;;;;94.40;34.92;;;;;;;-5.25;73.07;99711.22;8480585;27;20078;-70
2022/03/03 02:16:00;;;;;;;97.05;35.80;;;;;;;-5.30;73.62;99697.81;8465894;27;20047;-70
2022/03/03 02:20:08;;;;;;;101.57;35.53;;;;;;;-5.31;73.90;99696.19;8458366;28;20036;-71
2022/03/03 02:24:10;;;;;;;96.13;35.58;;;;;;;-5.34;73.87;99696.59;8507813;27;20146;-70
2022/03/03 02:28:11;;;;;;;104.40;34.60;;;;;;;-5.34;74.17;99696.59;8467018;27;20071;-70
2022/03/03 02:32:12;;;;;;;99.45;34.78;;;;;;;-5.35;74.15;99689.69;8462554;27;20050;-71
2022/03/03 02:36:29;;;;;;;93.10;34.92;;;;;;;-5.35;74.12;99694.94;8458310;28;20047;-71
2022/03/03 02:40:30;;;;;;;106.32;37.58;;;;;;;-5.36;74.03;99673.06;8469585;27;20043;-70
2022/03/03 02:44:31;;;;;;;100.00;35.17;;;;;;;-5.36;73.92;99683.59;8470885;27;20054;-71
2022/03/03 02:48:33;;;;;;;98.40;36.28;;;;;;;-5.36;73.62;99677.53;8492966;27;20098;-70
2022/03/03 02:52:34;;;;;;;104.57;36.42;;;;;;;-5.36;74.23;99672.25;8453971;28;20047;-70
2022/03/03 02:57:53;;;;;;;99.30;35.42;;;;;;;-5.36;74.06;99661.72;8489162;27;20052;-70
2022/03/03 03:01:00;;;;;;;94.68;34.97;;;;;;;-5.34;74.29;99659.72;8450736;28;20055;-70
2022/03/03 03:05:01;;;;;;;93.00;34.88;;;;;;;-5.33;74.41;99656.06;8462749;28;20124;-70
2022/03/03 03:09:02;;;;;;;97.53;33.80;;;;;;;-5.33;74.51;99650.81;8471014;28;20081;-70
2022/03/03 03:13:04;;;;;;;90.93;34.47;;;;;;;-5.26;74.20;99641.13;8491107;27;20051;-70
2022/03/03 03:17:05;;;;;;;94.90;34.30;;;;;;;-5.24;74.11;99633.88;8471812;27;20718;-70
2022/03/03 03:21:05;;;;;;;101.32;33.55;;;;;;;-5.22;73.49;99642.38;8494312;27;20055;-72
2022/03/03 03:25:09;;;;;;;97.50;34.55;;;;;;;-5.26;74.04;99636.69;8488261;27;20043;-71
2022/03/03 03:29:10;;;;;;;89.32;32.10;;;;;;;-5.25;74.58;99637.50;8462262;28;20120;-70
2022/03/03 03:33:11;;;;;;;81.10;31.13;;;;;;;-5.23;74.53;99635.47;8448678;27;20047;-70
2022/03/03 03:37:12;;;;;;;87.97;31.65;;;;;;;-5.13;74.15;99630.69;8451140;27;20032;-70
2022/03/03 03:41:13;;;;;;;76.80;30.42;;;;;;;-4.96;73.83;99626.69;8486550;27;20051;-70
2022/03/03 03:45:17;;;;;;;81.20;30.52;;;;;;;-4.83;73.91;99631.22;8496242;27;20122;-70
2022/03/03 03:49:18;;;;;;;82.85;31.17;;;;;;;-4.73;74.12;99621.94;8478882;27;20055;-70
2022/03/03 03:53:18;;;;;;;84.30;30.00;;;;;;;-4.62;73.90;99632.91;8482333;27;20471;-70
2022/03/03 03:57:19;;;;;;;76.63;31.92;;;;;;;-4.52;73.58;99622.81;8465900;27;20123;-71
2022/03/03 04:01:20;;;;;;;83.45;30.52;;;;;;;-4.43;73.49;99616.34;8465992;27;20051;-70
2022/03/03 04:05:21;;;;;;;81.13;30.45;;;;;;;-4.38;73.77;99613.91;8486803;27;20096;-70
2022/03/03 04:09:22;;;;;;;83.57;30.15;;;;;;;-4.34;74.10;99604.63;8497909;27;20047;-70
2022/03/03 04:13:23;;;;;;;82.63;32.17;;;;;;;-4.27;73.95;99605.41;8480847;27;20494;-70
2022/03/03 04:17:24;;;;;;;83.93;32.25;;;;;;;-4.20;74.01;99595.69;8460179;27;20119;-70
2022/03/03 04:21:25;;;;;;;88.10;31.13;;;;;;;-4.16;74.04;99591.63;8444009;28;20096;-70
2022/03/03 04:25:26;;;;;;;77.13;31.42;;;;;;;-4.07;73.87;99579.88;8457463;27;20043;-70
2022/03/03 04:29:27;;;;;;;81.13;30.50;;;;;;;-4.01;73.87;99578.25;8467785;27;20040;-71
2022/03/03 04:33:28;;;;;;;83.07;30.58;;;;;;;-3.98;73.68;99583.94;8442952;28;20050;-70
2022/03/03 04:37:29;;;;;;;77.68;31.35;;;;;;;-3.93;73.53;99584.16;8445487;28;20097;-70
2022/03/03 04:41:30;;;;;;;86.03;31.98;;;;;;;-3.88;73.68;99594.09;8441924;28;20474;-70
2022/03/03 04:45:31;;;;;;;80.13;29.77;;;;;;;-3.86;73.70;99582.28;8423762;28;20075;-70
2022/03/03 04:49:32;;;;;;;81.35;30.30;;;;;;;-3.89;74.13;99588.00;8476954;27;20359;-69
2022/03/03 04:53:33;;;;;;;80.47;31.15;;;;;;;-3.90;74.13;99591.66;8411317;27;20067;-70
2022/03/03 04:57:34;;;;;;;87.13;31.70;;;;;;;-3.90;74.07;99586.38;8458382;28;20130;-70
2022/03/03 05:01:35;;;;;;;79.90;31.20;;;;;;;-3.92;74.35;99583.13;8463096;28;20043;-71
2022/03/03 05:05:36;;;;;;;84.32;31.70;;;;;;;-3.93;74.34;99581.50;8464030;28;20135;-71
2022/03/03 05:09:37;;;;;;;75.57;32.45;;;;;;;-3.97;74.55;99590.84;8427942;28;20389;-70
2022/03/03 05:13:37;;;;;;;81.82;31.33;;;;;;;-3.96;74.54;99584.53;8444546;28;20142;-72
2022/03/03 05:17:38;;;;;;;86.07;31.58;;;;;;;-3.98;74.71;99578.66;8462712;28;20047;-70
2022/03/03 05:21:39;;;;;;;80.32;30.63;;;;;;;-3.95;74.66;99578.25;8463384;27;20135;-69
2022/03/03 05:25:40;;;;;;;81.90;30.92;;;;;;;-3.92;74.79;99583.13;8463243;28;20088;-70
2022/03/03 05:29:41;;;;;;;79.63;29.95;;;;;;;-3.89;74.55;99577.44;8453224;27;20459;-70
2022/03/03 05:33:43;;;;;;;83.32;30.48;;;;;;;-3.87;74.60;99564.88;8433632;28;20051;-70
2022/03/03 05:37:46;;;;;;;73.38;29.85;;;;;;;-3.88;74.66;99557.97;8430190;28;20106;-71
2022/03/03 05:41:47;;;;;;;73.35;28.75;;;;;;;-3.88;74.98;99563.25;8428961;28;20064;-72
2022/03/03 05:45:48;;;;;;;77.68;29.83;;;;;;;-3.84;74.76;99553.88;8460735;27;20729;-71
2022/03/03 05:49:50;;;;;;;73.80;28.52;;;;;;;-3.81;74.48;99554.50;8437015;28;20051;-71
2022/03/03 05:53:51;;;;;;;86.38;29.02;;;;;;;-3.79;74.95;99549.81;8459351;28;20047;-72
2022/03/03 05:57:54;;;;;;;74.32;29.25;;;;;;;-3.77;75.08;99542.53;8462350;28;20104;-71
2022/03/03 06:01:56;;;;;;;73.85;29.20;;;;;;;-3.65;74.56;99535.59;8462256;28;20043;-71
2022/03/03 06:06:17;;;;;;;77.70;29.65;;;;;;;-3.58;74.34;99536.38;8495361;27;20047;-70
2022/03/03 06:10:22;;;;;;;86.90;29.73;;;;;;;-3.51;74.63;99545.09;8461551;27;20075;-70
2022/03/03 06:14:30;;;;;;;83.63;30.88;;;;;;;-3.44;74.52;99538.00;8461557;28;20051;-71
2022/03/03 06:18:32;;;;;;;61.57;24.23;;;;;;;-3.38;74.14;99537.13;8461621;28;20059;-70
2022/03/03 06:22:33;;;;;;;81.88;31.35;;;;;;;-3.32;73.89;99538.13;8461407;28;20511;-70
2022/03/03 06:26:35;;;;;;;77.45;31.08;;;;;;;-3.31;74.10;99516.00;8461551;28;20138;-71
2022/03/03 06:30:37;;;;;;;86.85;32.20;;;;;;;-3.29;74.14;99520.06;8461027;28;20051;-71
2022/03/03 06:34:38;;;;;;;78.60;30.00;;;;;;;-3.23;74.25;99531.63;8461149;28;20071;-70
2022/03/03 06:38:39;;;;;;;93.55;34.50;;;;;;;-3.13;74.11;99539.91;8461171;28;20053;-71
2022/03/03 06:42:39;;;;;;;97.68;35.35;;;;;;;-3.06;73.75;99541.47;8442195;28;20048;-74
2022/03/03 06:46:41;;;;;;;93.63;35.45;;;;;;;-3.03;73.53;99541.09;8459512;28;20052;-71
2022/03/03 06:50:42;;;;;;;96.03;34.63;;;;;;;-3.02;73.52;99542.72;8441720;28;20494;-71
2022/03/03 06:54:51;;;;;;;96.55;34.13;;;;;;;-3.02;73.44;99542.72;8460648;28;20509;-71
2022/03/03 06:58:54;;;;;;;82.40;33.20;;;;;;;-2.94;73.45;99546.09;8460860;28;20440;-72
2022/03/03 07:02:55;;;;;;;82.65;32.33;;;;;;;-2.87;73.54;99538.97;8459399;28;20043;-72
2022/03/03 07:06:56;;;;;;;80.65;30.55;;;;;;;-2.76;73.41;99541.75;8466383;28;20451;-71
2022/03/03 07:10:57;;;;;;;76.32;29.92;;;;;;;-2.62;73.39;99537.19;8467620;27;20044;-72
2022/03/03 07:14:58;;;;;;;72.85;26.73;;;;;;;-2.41;73.12;99536.84;8467351;27;20419;-72
2022/03/03 07:19:02;;;;;;;58.75;22.75;;;;;;;-2.05;72.25;99545.94;8467106;28;20043;-71
2022/03/03 07:23:07;;;;;;;63.67;24.02;;;;;;;-1.68;69.95;99555.59;8466848;28;20100;-72
2022/03/03 07:27:17;;;;;;;55.33;20.58;;;;;;;-1.41;67.35;99540.22;8464743;28;20112;-72
2022/03/03 07:31:19;;;;;;;58.90;22.73;;;;;;;-1.21;67.03;99550.59;8466675;28;20415;-73
2022/03/03 07:35:23;;;;;;;64.00;21.85;;;;;;;-1.09;66.34;99554.13;8500019;27;20058;-72
2022/03/03 07:39:30;;;;;;;68.57;23.88;;;;;;;-0.92;65.71;99555.16;8466874;28;20334;-72
2022/03/03 07:43:31;;;;;;;59.65;22.52;;;;;;;-0.75;64.13;99545.56;8466777;28;20434;-71
2022/03/03 07:47:32;;;;;;;66.25;22.77;;;;;;;-0.62;63.70;99550.69;8466510;28;20060;-71
2022/03/03 07:51:35;;;;;;;78.57;22.85;;;;;;;-0.47;62.76;99556.38;8466437;27;20043;-71
2022/03/03 07:55:47;;;;;;;67.38;23.52;;;;;;;-0.34;62.70;99559.88;8466395;28;20514;-71
2022/03/03 07:59:58;;;;;;;61.05;22.85;;;;;;;-0.17;61.34;99552.88;8466317;28;20097;-72
2022/03/03 08:04:01;;;;;;;57.92;22.05;;;;;;;-0.15;61.20;99556.09;8494710;27;20491;-73
2022/03/03 08:08:03;;;;;;;57.40;23.17;;;;;;;-0.05;60.15;99551.84;8465763;27;20483;-72
2022/03/03 08:12:06;;;;;;;64.45;23.83;;;;;;;-0.03;60.93;99551.63;8465756;28;20126;-72
2022/03/03 08:16:07;;;;;;;66.63;23.70;;;;;;;0.00;60.75;99551.19;8479691;27;20143;-72
2022/03/03 08:20:08;;;;;;;66.82;23.63;;;;;;;0.08;59.93;99556.16;8465234;28;20479;-73
2022/03/03 08:24:12;;;;;;;61.60;24.52;;;;;;;0.18;60.23;99551.06;8465439;28;20052;-72
2022/03/03 08:28:14;;;;;;;63.88;25.27;;;;;;;0.32;60.57;99547.13;8463069;28;20426;-72
2022/03/03 08:32:17;;;;;;;71.68;26.00;;;;;;;0.57;58.79;99543.44;8465108;28;20048;-72
2022/03/03 08:36:31;;;;;;;67.63;25.92;;;;;;;0.65;58.84;99529.78;8464840;28;20050;-72
2022/03/03 08:40:34;;;;;;;64.05;25.92;;;;;;;0.76;58.47;99536.94;8497747;27;20051;-71
2022/03/03 08:44:36;;;;;;;63.17;23.33;;;;;;;0.94;56.27;99539.44;8464871;28;20050;-71
2022/03/03 08:48:37;;;;;;;57.03;21.48;;;;;;;1.14;54.17;99534.53;8464534;28;20047;-71
2022/03/03 08:52:40;;;;;;;65.60;26.38;;;;;;;1.21;54.37;99535.19;8463062;28;20098;-71
2022/03/03 08:56:41;;;;;;;65.50;24.27;;;;;;;1.35;53.17;99529.59;8464119;28;20618;-72
2022/03/03 09:00:43;;;;;;;72.43;25.58;;;;;;;1.48;53.48;99523.97;8478979;27;20247;-72
2022/03/03 09:04:45;;;;;;;71.07;26.08;;;;;;;1.65;53.62;99519.47;8463977;28;20062;-72
2022/03/03 09:08:46;;;;;;;62.38;24.23;;;;;;;1.76;51.84;99510.59;8464191;28;20142;-72
2022/03/03 09:12:48;;;;;;;59.63;22.65;;;;;;;1.96;51.09;99510.91;8463785;28;20127;-72
2022/03/03 09:16:49;;;;;;;63.53;23.48;;;;;;;2.03;50.52;99511.56;8478424;27;20510;-72
2022/03/03 09:20:50;;;;;;;56.38;22.83;;;;;;;2.11;51.17;99510.38;8463698;28;20052;-72
2022/03/03 09:24:53;;;;;;;61.88;24.02;;;;;;;2.12;50.74;99502.13;8444163;27;20075;-73
2022/03/03 09:28:54;;;;;;;59.70;22.83;;;;;;;2.39;50.06;99496.09;8428517;28;20504;-72
2022/03/03 09:32:55;;;;;;;62.58;25.23;;;;;;;2.52;50.25;99498.44;8429461;28;20056;-72
2022/03/03 09:36:57;;;;;;;68.65;25.90;;;;;;;2.64;50.57;99496.47;8429208;28;20121;-72
2022/03/03 09:40:57;;;;;;;65.20;26.67;;;;;;;2.73;51.52;99494.97;8427416;28;20097;-73
2022/03/03 09:44:59;;;;;;;68.15;25.95;;;;;;;2.84;51.05;99496.69;8426967;28;20480;-72
2022/03/03 09:49:00;;;;;;;64.47;28.25;;;;;;;2.94;50.68;99502.16;8426711;28;20102;-73
2022/03/03 09:53:10;;;;;;;66.38;26.25;;;;;;;2.93;50.99;99500.53;8446983;28;20053;-73
2022/03/03 09:57:11;;;;;;;64.63;26.75;;;;;;;3.03;51.57;99507.03;8462158;28;20176;-73
2022/03/03 10:01:13;;;;;;;66.82;27.73;;;;;;;3.16;51.48;99504.00;8460981;28;20052;-73
2022/03/03 10:05:27;;;;;;;64.00;25.65;;;;;;;3.26;51.26;99504.09;8461146;28;20058;-73
2022/03/03 10:09:28;;;;;;;72.82;29.55;;;;;;;3.48;51.21;99506.72;8461944;28;20056;-73
2022/03/03 10:13:46;;;;;;;77.07;30.30;;;;;;;3.68;50.81;99502.38;8461762;28;20483;-71
2022/03/03 10:17:48;;;;;;;72.53;30.08;;;;;;;3.77;50.48;99506.19;8459439;28;20040;-72
2022/03/03 10:21:49;;;;;;;71.18;29.05;;;;;;;3.86;50.49;99492.38;8462205;28;20060;-72
2022/03/03 10:25:52;;;;;;;68.57;28.60;;;;;;;3.92;50.59;99486.00;8459153;28;20118;-72
2022/03/03 10:29:53;;;;;;;65.00;29.35;;;;;;;4.17;49.84;99494.22;8461276;28;20075;-73
2022/03/03 10:33:54;;;;;;;61.40;24.60;;;;;;;4.23;49.50;99487.81;8494415;27;20120;-72
2022/03/03 10:38:03;;;;;;;66.03;27.58;;;;;;;4.23;49.19;99487.81;8460997;28;20048;-72
2022/03/03 10:42:13;;;;;;;69.40;29.08;;;;;;;4.20;49.34;99493.69;8494359;27;20116;-72
2022/03/03 10:46:13;;;;;;;71.90;28.75;;;;;;;4.39;49.82;99492.19;8506106;27;20051;-72
2022/03/03 10:50:14;;;;;;;74.70;30.92;;;;;;;4.41;48.92;99490.06;8495067;27;20127;-72
2022/03/03 10:54:16;;;;;;;71.40;28.75;;;;;;;4.37;49.46;99483.63;8460917;27;20396;-73
2022/03/03 10:58:17;;;;;;;71.22;29.48;;;;;;;4.52;49.37;99491.75;8441479;28;20089;-73
2022/03/03 11:02:19;;;;;;;71.00;29.98;;;;;;;4.51;49.52;99471.41;8475771;28;20077;-72
2022/03/03 11:06:25;;;;;;;95.13;40.50;;;;;;;4.70;49.20;99473.63;8460763;28;20266;-72
2022/03/03 11:10:27;;;;;;;85.43;34.88;;;;;;;4.95;48.55;99476.41;8460738;28;20055;-73
2022/03/03 11:14:29;;;;;;;71.57;31.85;;;;;;;4.89;48.83;99469.41;8460427;28;20048;-72
2022/03/03 11:18:30;;;;;;;71.75;29.60;;;;;;;4.97;48.29;99455.56;8459481;28;20404;-72
2022/03/03 11:22:32;;;;;;;63.67;31.27;;;;;;;5.04;48.72;99461.44;8460216;28;20058;-72
2022/03/03 11:26:44;;;;;;;65.57;28.38;;;;;;;5.07;48.96;99460.94;8460456;28;20073;-72
2022/03/03 11:30:46;;;;;;;68.90;28.48;;;;;;;5.21;47.31;99462.03;8441204;28;20051;-72
2022/03/03 11:34:49;;;;;;;58.22;26.50;;;;;;;5.28;47.09;99456.41;8441120;28;20395;-73
2022/03/03 11:38:55;;;;;;;62.65;25.95;;;;;;;5.28;46.35;99457.22;8459581;28;20092;-72
2022/03/03 11:42:56;;;;;;;61.45;28.23;;;;;;;5.29;46.75;99453.44;8459958;28;20044;-73
2022/03/03 11:46:58;;;;;;;57.20;25.10;;;;;;;5.35;45.86;99446.22;8460227;28;20404;-73
2022/03/03 11:51:34;;;;;;;62.25;27.77;;;;;;;5.33;46.73;99449.19;8461341;28;20526;-73
2022/03/03 11:55:43;;;;;;;66.78;27.38;;;;;;;5.44;45.81;99450.81;8466397;28;20060;-72
2022/03/03 11:59:48;;;;;;;80.47;35.58;;;;;;;5.55;45.61;99448.16;8465803;28;20048;-73
2022/03/03 12:04:04;;;;;;;59.60;24.83;;;;;;;5.73;46.34;99447.59;8466080;28;20537;-73
2022/03/03 12:08:27;;;;;;;59.35;25.95;;;;;;;5.69;46.43;99446.53;8480908;27;20718;-73
2022/03/03 12:12:29;;;;;;;54.42;23.52;;;;;;;5.79;45.16;99450.00;8465989;28;20288;-73
2022/03/03 12:16:35;;;;;;;49.97;23.50;;;;;;;5.90;45.24;99443.59;8498742;27;20055;-73
2022/03/03 12:20:38;;;;;;;54.08;24.95;;;;;;;5.95;45.57;99440.13;8465438;28;20139;-73
2022/03/03 12:24:39;;;;;;;50.47;23.05;;;;;;;6.02;44.18;99440.66;8480421;27;20058;-73
2022/03/03 12:28:47;;;;;;;50.75;23.08;;;;;;;6.01;44.82;99433.69;8465475;28;20054;-72
2022/03/03 12:32:55;;;;;;;49.65;22.45;;;;;;;5.99;44.97;99433.13;8465174;28;20059;-73
2022/03/03 12:36:56;;;;;;;50.83;22.13;;;;;;;5.97;44.89;99435.28;8465026;27;20048;-72
2022/03/03 12:40:57;;;;;;;52.08;22.23;;;;;;;5.98;44.81;99430.72;8464813;28;20052;-73
2022/03/03 12:45:02;;;;;;;51.13;21.45;;;;;;;6.01;44.93;99428.31;8464622;28;20559;-72
2022/03/03 12:49:08;;;;;;;49.03;21.75;;;;;;;6.07;45.20;99431.78;8464548;28;20052;-72
2022/03/03 12:53:11;;;;;;;52.85;22.33;;;;;;;6.09;45.37;99417.03;8464108;28;20056;-72
2022/03/03 12:57:12;;;;;;;56.67;23.77;;;;;;;6.15;45.72;99407.09;8440346;28;20048;-72
2022/03/03 13:01:21;;;;;;;52.28;23.25;;;;;;;6.18;46.29;99407.38;8430198;28;20048;-72
2022/03/03 13:05:28;;;;;;;60.10;24.38;;;;;;;6.21;46.46;99411.38;8430196;28;20085;-73
2022/03/03 13:09:29;;;;;;;57.78;25.42;;;;;;;6.21;46.82;99417.53;8430107;28;20170;-72
2022/03/03 13:13:37;;;;;;;59.65;24.50;;;;;;;6.28;46.81;99415.38;8429786;28;20040;-72
2022/03/03 13:17:57;;;;;;;57.42;25.30;;;;;;;6.41;46.83;99421.22;8454890;28;20047;-74
2022/03/03 13:21:58;;;;;;;56.92;23.40;;;;;;;6.49;47.02;99407.25;8491519;27;20043;-72
2022/03/03 13:26:11;;;;;;;64.70;29.15;;;;;;;6.85;46.50;99406.00;8461073;27;20043;-73
2022/03/03 13:30:32;;;;;;;66.03;27.08;;;;;;;7.42;45.94;99399.19;8493199;27;20058;-73
2022/03/03 13:34:33;;;;;;;63.55;25.05;;;;;;;8.39;44.68;99407.97;8493130;27;20039;-72
2022/03/03 13:38:34;;;;;;;55.15;24.77;;;;;;;9.27;42.13;99418.13;8475667;27;20176;-72
2022/03/03 13:42:38;;;;;;;53.50;25.52;;;;;;;9.91;41.22;99421.94;8492643;27;20494;-72
2022/03/03 13:46:41;;;;;;;55.85;26.25;;;;;;;10.67;40.13;99404.34;8492688;27;20055;-72
2022/03/03 13:50:46;;;;;;;51.00;25.60;;;;;;;11.43;39.90;99415.06;8492583;27;20071;-73
2022/03/03 13:54:58;;;;;;;54.13;26.80;;;;;;;12.11;38.98;99403.09;8442197;28;20459;-73
2022/03/03 13:59:04;;;;;;;49.88;26.38;;;;;;;12.12;37.46;99404.69;8458593;28;20050;-73
2022/03/03 14:03:10;;;;;;;58.92;30.67;;;;;;;12.77;35.74;99409.41;8462433;28;20060;-73
2022/03/03 14:07:26;;;;;;;69.90;35.15;;;;;;;12.71;36.51;99405.22;8461839;28;20050;-72
2022/03/03 14:11:27;;;;;;;67.93;36.03;;;;;;;12.93;36.23;99413.25;8495324;27;20071;-73
2022/03/03 14:15:29;;;;;;;71.70;38.95;;;;;;;13.22;35.85;99401.03;8461531;28;20419;-73
2022/03/03 14:19:30;;;;;;;75.93;41.60;;;;;;;13.60;36.04;99420.97;8460732;28;20040;-73
2022/03/03 14:23:32;;;;;;;90.93;45.70;;;;;;;13.76;35.46;99413.91;8461664;28;20104;-72
2022/03/03 14:27:33;;;;;;;86.32;43.83;;;;;;;13.28;36.34;99418.72;8461734;28;20048;-73
2022/03/03 14:31:34;;;;;;;86.32;45.42;;;;;;;12.66;37.42;99413.50;8461504;28;20490;-72
2022/03/03 14:35:35;;;;;;;93.68;47.38;;;;;;;11.82;39.19;99421.72;8461355;28;20105;-73
2022/03/03 14:39:36;;;;;;;99.30;49.60;;;;;;;11.84;39.40;99424.94;8461455;28;20481;-73
2022/03/03 14:43:38;;;;;;;92.32;45.88;;;;;;;11.72;39.88;99421.94;8461074;28;20054;-74
2022/03/03 14:47:40;;;;;;;98.60;47.67;;;;;;;10.52;42.31;99438.63;8460978;28;20054;-72
2022/03/03 14:51:41;;;;;;;97.85;45.08;;;;;;;10.27;42.24;99431.03;8461113;28;20057;-72
2022/03/03 14:55:43;;;;;;;97.47;45.33;;;;;;;9.48;44.02;99440.19;8461099;28;20481;-73
2022/03/03 14:59:44;;;;;;;100.03;46.33;;;;;;;9.45;43.87;99430.78;8460744;28;20490;-73
2022/03/03 15:03:48;;;;;;;99.95;46.95;;;;;;;9.38;44.08;99424.97;8475866;27;20563;-72
2022/03/03 15:07:50;;;;;;;107.28;47.83;;;;;;;9.00;44.52;99444.91;8425886;28;20047;-73
2022/03/03 15:11:53;;;;;;;113.13;48.50;;;;;;;7.40;47.27;99449.75;8460830;28;20048;-72
2022/03/03 15:15:55;;;;;;;113.63;48.83;;;;;;;6.04;50.26;99449.22;8459360;28;20492;-72
2022/03/03 15:19:56;;;;;;;118.35;48.78;;;;;;;5.77;51.42;99454.03;8460748;28;20067;-72
2022/03/03 15:23:57;;;;;;;107.45;48.22;;;;;;;5.54;51.47;99463.41;8460481;28;20081;-72
2022/03/03 15:28:01;;;;;;;109.65;48.10;;;;;;;5.06;52.79;99459.31;8467192;28;20047;-72
2022/03/03 15:32:06;;;;;;;114.78;47.33;;;;;;;4.42;54.39;99454.25;8467946;28;20054;-71
2022/03/03 15:40:26;;;;;;;117.93;47.28;;;;;;;3.30;57.89;99462.50;8479556;27;20410;-72
2022/03/03 15:44:29;;;;;;;120.70;48.53;;;;;;;2.96;59.06;99468.00;8467186;28;20116;-72
2022/03/03 15:48:30;;;;;;;122.90;48.20;;;;;;;2.66;60.39;99464.19;8466833;28;20067;-73
2022/03/03 15:52:31;;;;;;;119.47;46.45;;;;;;;2.20;61.42;99470.78;8481498;27;20075;-72
2022/03/03 15:56:32;;;;;;;122.60;46.67;;;;;;;1.94;62.90;99490.94;8466387;28;20054;-72
2022/03/03 16:00:34;;;;;;;127.18;45.65;;;;;;;2.01;62.73;99487.03;8466634;28;20096;-73
2022/03/03 16:04:36;;;;;;;130.32;49.58;;;;;;;2.15;62.41;99486.72;8465080;28;20380;-73
2022/03/03 16:08:37;;;;;;;131.27;48.63;;;;;;;2.24;62.98;99501.22;8466247;28;20048;-72
2022/03/03 16:12:38;;;;;;;121.90;48.08;;;;;;;2.17;62.82;99511.25;8466045;28;20035;-72
2022/03/03 16:16:40;;;;;;;125.68;47.28;;;;;;;1.68;64.38;99503.03;8464401;28;20054;-73
2022/03/03 16:20:43;;;;;;;120.15;46.17;;;;;;;1.70;64.49;99500.91;8438614;28;21216;-72
2022/03/03 16:24:46;;;;;;;131.15;46.42;;;;;;;1.63;64.76;99513.59;8459540;28;20057;-72
2022/03/03 16:28:48;;;;;;;128.15;47.05;;;;;;;1.43;64.94;99516.69;8437922;28;20139;-73
2022/03/03 16:32:50;;;;;;;124.28;45.00;;;;;;;1.38;65.81;99518.44;8431815;28;20044;-72
2022/03/03 16:36:52;;;;;;;117.15;45.33;;;;;;;1.14;66.00;99513.25;8462646;28;20039;-72
2022/03/03 16:40:54;;;;;;;112.32;42.58;;;;;;;0.97;66.03;99523.00;8427083;28;20047;-73
2022/03/03 16:44:55;;;;;;;116.60;42.00;;;;;;;0.87;66.75;99522.81;8452679;28;20063;-72
2022/03/03 16:48:57;;;;;;;118.88;40.53;;;;;;;0.81;67.60;99523.75;8453476;27;20071;-72
2022/03/03 16:52:58;;;;;;;110.15;42.30;;;;;;;0.68;68.14;99534.66;8462447;27;20222;-72
2022/03/03 16:56:59;;;;;;;112.70;39.80;;;;;;;0.57;68.28;99535.47;8494225;27;20378;-72
2022/03/03 17:01:00;;;;;;;107.05;39.60;;;;;;;0.57;68.75;99532.81;8475754;27;20082;-73
2022/03/03 17:05:02;;;;;;;108.18;41.13;;;;;;;0.48;68.91;99535.00;8460010;28;20523;-72
2022/03/03 17:09:04;;;;;;;108.45;39.55;;;;;;;0.45;69.09;99539.97;8442532;28;20047;-73
2022/03/03 17:13:05;;;;;;;102.25;36.83;;;;;;;0.42;69.60;99531.41;8455009;28;20098;-73
2022/03/03 17:17:07;;;;;;;109.22;39.15;;;;;;;0.35;69.61;99530.75;8452947;28;20044;-72
2022/03/03 17:21:09;;;;;;;105.72;39.70;;;;;;;0.15;70.44;99534.81;8463457;27;20054;-73
2022/03/03 17:25:10;;;;;;;106.30;39.17;;;;;;;0.08;70.68;99545.53;8458439;28;20075;-72
2022/03/03 17:29:12;;;;;;;99.13;36.03;;;;;;;0.14;70.86;99549.94;8462229;27;20160;-72
2022/03/03 17:33:12;;;;;;;104.10;37.88;;;;;;;0.23;70.81;99559.16;8429480;28;20416;-72
2022/03/03 17:37:14;;;;;;;99.28;37.72;;;;;;;0.31;70.19;99556.19;8448597;28;20499;-73
2022/03/03 17:41:16;;;;;;;96.50;37.35;;;;;;;0.37;70.09;99554.44;8430075;28;20097;-72
2022/03/03 17:45:18;;;;;;;104.30;38.40;;;;;;;0.27;70.58;99555.00;8429354;28;20097;-72
2022/03/03 17:49:19;;;;;;;96.03;37.05;;;;;;;0.13;71.37;99553.63;8428506;28;20568;-72
2022/03/03 17:53:20;;;;;;;92.82;35.53;;;;;;;0.12;71.45;99562.63;8449611;28;20126;-73
2022/03/03 17:57:21;;;;;;;101.30;37.97;;;;;;;0.21;71.18;99566.53;8462115;28;20050;-72
2022/03/03 18:01:23;;;;;;;100.57;36.38;;;;;;;0.28;71.23;99556.63;8456559;28;20468;-73
2022/03/03 18:05:24;;;;;;;103.13;35.90;;;;;;;0.30;71.17;99575.81;8458463;28;20048;-73
2022/03/03 18:09:26;;;;;;;96.15;36.60;;;;;;;0.19;71.05;99579.25;8468337;27;20043;-72
2022/03/03 18:13:27;;;;;;;104.07;39.40;;;;;;;0.15;71.33;99583.41;8495133;27;20046;-72
2022/03/03 18:17:29;;;;;;;102.00;39.00;;;;;;;0.18;71.14;99593.56;8493591;27;20054;-72
2022/03/03 18:21:29;;;;;;;104.93;40.47;;;;;;;0.14;70.89;99592.41;8459074;27;20529;-72
2022/03/03 18:25:31;;;;;;;110.35;41.45;;;;;;;0.30;71.85;99591.75;8460622;28;20039;-72
2022/03/03 18:29:32;;;;;;;110.88;40.85;;;;;;;0.26;71.20;99595.91;8460454;28;20464;-72
2022/03/03 18:33:34;;;;;;;111.22;41.53;;;;;;;0.19;71.67;99595.19;8456545;28;20179;-73
2022/03/03 18:37:35;;;;;;;111.65;41.63;;;;;;;0.15;71.83;99599.34;8465238;27;20050;-73
2022/03/03 18:41:36;;;;;;;111.63;41.80;;;;;;;0.04;71.83;99613.41;8446095;28;20372;-75
2022/03/03 18:45:37;;;;;;;99.63;40.53;;;;;;;0.06;72.22;99619.28;8452267;28;20071;-74